Wind Surf — C6IO6 — position and weather

sailwx.info

Track history (hours):
 
Tides and Currents Weather Stations Pressure Air Temp Water Temp Dewpoint Dewpoint Depression Visibility Wind Speed Wind Dir Waves Ship Positions

Wind Surf

Operator: Holland America Line

Last reported at 2020-Jan-15 11:05 UTC. Time now 2020-Apr-02 03:54 UTC.
Position N 16°42' W 062°32'.
Warning: this ship's position is months out of date.

Date/timePositionNaut miles runAvg speedWind from/ knotsBaromVisibWave heightAir tempDewpointWater temp
2020-Jan-15 11:05N 16°42' W 062°32'75 3.6
2020-Jan-14 14:02N 17°54' W 062°52'0 0.1
2020-Jan-14 13:26N 17°54' W 062°52'0 0.0
2020-Jan-14 11:23N 17°54' W 062°52'1 3.5
2020-Jan-14 10:59N 17°54' W 062°54'5 4.8
2020-Jan-14 10:00N 17°50' W 062°56'13 5.1
2020-Jan-14 07:29N 17°38' W 063°03'7 4.6
2020-Jan-14 05:56N 17°32' W 063°06'2 4.9
2020-Jan-14 05:27N 17°30' W 063°06'24 5.0
2020-Jan-14 00:31N 17°08' W 062°53'13 0.6
2020-Jan-13 03:27N 17°07' W 062°40'17 0.9
2020-Jan-12 09:00N 17°17' W 062°55'2 4.7
2020-Jan-12 08:28N 17°19' W 062°57'1 0.4
2020-Jan-12 07:01N 17°20' W 062°57'23 5.7
2020-Jan-12 03:00N 17°40' W 063°06'12 6.1
2020-Jan-12 01:00N 17°53' W 063°05'5 5.2
2020-Jan-12 00:00N 17°58' W 063°05'4 3.7
2020-Jan-11 23:00N 18°01' W 063°03'0 0.0
2020-Jan-11 22:23N 18°01' W 063°03'0 0.0
2020-Jan-11 21:26N 18°01' W 063°03'0 0.0
2020-Jan-11 20:52N 18°01' W 063°03'0 0.0
2020-Jan-11 16:59N 18°01' W 063°03'0 0.0
2020-Jan-11 10:32N 18°01' W 063°03'0 0.0
2020-Jan-11 06:26N 18°01' W 063°03'0 0.0
2020-Jan-11 03:26N 18°01' W 063°03'0 0.0
2020-Jan-11 02:44N 18°01' W 063°03'0 0.0
2020-Jan-11 02:28N 18°01' W 063°03'0 0.0
2020-Jan-11 01:01N 18°01' W 063°03'0 0.0
2020-Jan-10 23:58N 18°01' W 063°03'0 0.0
2020-Jan-10 23:16N 18°01' W 063°03'8 0.6
2020-Jan-10 10:28N 17°55' W 062°58'13 6.3
2020-Jan-10 08:22N 17°57' W 063°12'3 6.3
2020-Jan-10 07:56N 17°57' W 063°14'4 6.4
2020-Jan-10 07:22N 17°59' W 063°18'3 6.7
2020-Jan-10 06:56N 17°59' W 063°21'4 6.8
2020-Jan-10 06:25N 18°00' W 063°24'  
2020-Jan-06 22:30N 17°57' W 063°31'11 5.8
2020-Jan-06 20:35N 17°52' W 063°21'7 5.8
2020-Jan-06 19:26N 17°49' W 063°14'3 5.8
2020-Jan-06 18:56N 17°48' W 063°12'14 5.6
2020-Jan-06 16:29N 17°40' W 063°00'3 5.5
2020-Jan-06 16:00N 17°38' W 062°58'6 5.5
2020-Jan-06 14:58N 17°35' W 062°53'  
Track history (hours):
 
Tides and Currents Weather Stations Pressure Air Temp Water Temp Dewpoint Dewpoint Depression Visibility Wind Speed Wind Dir Waves Ship Positions

Wind Surf

Operator: Holland America Line

Last reported at 2020-Jan-15 11:05 UTC. Time now 2020-Apr-02 03:54 UTC.
Position N 16°42' W 062°32'.
Warning: this ship's position is months out of date.

Date/timePositionNaut miles runAvg speedWind from/ knotsBaromVisibWave heightAir tempDewpointWater temp
2020-Jan-15 11:05N 16°42' W 062°32'75 3.6
2020-Jan-14 14:02N 17°54' W 062°52'0 0.1
2020-Jan-14 13:26N 17°54' W 062°52'0 0.0
2020-Jan-14 11:23N 17°54' W 062°52'1 3.5
2020-Jan-14 10:59N 17°54' W 062°54'5 4.8
2020-Jan-14 10:00N 17°50' W 062°56'13 5.1
2020-Jan-14 07:29N 17°38' W 063°03'7 4.6
2020-Jan-14 05:56N 17°32' W 063°06'2 4.9
2020-Jan-14 05:27N 17°30' W 063°06'24 5.0
2020-Jan-14 00:31N 17°08' W 062°53'13 0.6
2020-Jan-13 03:27N 17°07' W 062°40'17 0.9
2020-Jan-12 09:00N 17°17' W 062°55'2 4.7
2020-Jan-12 08:28N 17°19' W 062°57'1 0.4
2020-Jan-12 07:01N 17°20' W 062°57'23 5.7
2020-Jan-12 03:00N 17°40' W 063°06'12 6.1
2020-Jan-12 01:00N 17°53' W 063°05'5 5.2
2020-Jan-12 00:00N 17°58' W 063°05'4 3.7
2020-Jan-11 23:00N 18°01' W 063°03'0 0.0
2020-Jan-11 22:23N 18°01' W 063°03'0 0.0
2020-Jan-11 21:26N 18°01' W 063°03'0 0.0
2020-Jan-11 20:52N 18°01' W 063°03'0 0.0
2020-Jan-11 16:59N 18°01' W 063°03'0 0.0
2020-Jan-11 10:32N 18°01' W 063°03'0 0.0
2020-Jan-11 06:26N 18°01' W 063°03'0 0.0
2020-Jan-11 03:26N 18°01' W 063°03'0 0.0
2020-Jan-11 02:44N 18°01' W 063°03'0 0.0
2020-Jan-11 02:28N 18°01' W 063°03'0 0.0
2020-Jan-11 01:01N 18°01' W 063°03'0 0.0
2020-Jan-10 23:58N 18°01' W 063°03'0 0.0
2020-Jan-10 23:16N 18°01' W 063°03'8 0.6
2020-Jan-10 10:28N 17°55' W 062°58'13 6.3
2020-Jan-10 08:22N 17°57' W 063°12'3 6.3
2020-Jan-10 07:56N 17°57' W 063°14'4 6.4
2020-Jan-10 07:22N 17°59' W 063°18'3 6.7
2020-Jan-10 06:56N 17°59' W 063°21'4 6.8
2020-Jan-10 06:25N 18°00' W 063°24'  
2020-Jan-06 22:30N 17°57' W 063°31'11 5.8
2020-Jan-06 20:35N 17°52' W 063°21'7 5.8
2020-Jan-06 19:26N 17°49' W 063°14'3 5.8
2020-Jan-06 18:56N 17°48' W 063°12'14 5.6
2020-Jan-06 16:29N 17°40' W 063°00'3 5.5
2020-Jan-06 16:00N 17°38' W 062°58'6 5.5
2020-Jan-06 14:58N 17°35' W 062°53'  

Dump ship's entire track history